createdAt,value
2019-03-06T00:01:25.879Z,7.07
2019-03-06T00:03:55.454Z,8.60
2019-03-06T00:06:24.390Z,5.87
2019-03-06T00:08:54.263Z,7.87
2019-03-06T00:11:23.163Z,6.03
2019-03-06T00:13:52.762Z,6.83
2019-03-06T00:16:21.937Z,9.03
2019-03-06T00:18:51.631Z,6.57
2019-03-06T00:21:20.705Z,6.70
2019-03-06T00:23:50.598Z,8.70
2019-03-06T00:26:20.162Z,11.77
2019-03-06T00:28:50.085Z,6.47
2019-03-06T00:31:20.414Z,6.50
2019-03-06T00:33:49.524Z,7.37
2019-03-06T00:36:21.702Z,5.67
2019-03-06T00:38:51.567Z,6.20
2019-03-06T00:41:26.382Z,5.80
2019-03-06T00:43:55.990Z,5.97
2019-03-06T00:46:25.838Z,5.30
2019-03-06T00:48:55.430Z,5.23
2019-03-06T00:51:25.863Z,5.07
2019-03-06T00:53:55.735Z,5.17
2019-03-06T00:56:24.964Z,5.23
2019-03-06T00:58:54.580Z,5.73
2019-03-06T01:01:24.402Z,5.13
2019-03-06T01:03:54.018Z,4.73
2019-03-06T01:06:23.775Z,5.30
2019-03-06T01:08:52.994Z,4.63
2019-03-06T01:11:22.596Z,4.47
2019-03-06T01:13:52.183Z,4.73
2019-03-06T01:16:22.024Z,4.40
2019-03-06T01:18:50.951Z,4.77
2019-03-06T01:21:20.499Z,5.80
2019-03-06T01:23:50.334Z,5.40
2019-03-06T01:26:19.946Z,5.57
2019-03-06T01:28:49.496Z,5.57
2019-03-06T01:31:20.338Z,6.27
2019-03-06T01:34:07.547Z,6.03
2019-03-06T01:36:53.533Z,5.10
2019-03-06T01:39:42.007Z,5.60
2019-03-06T01:42:42.495Z,6.13
2019-03-06T01:45:13.111Z,5.90
2019-03-06T01:47:42.954Z,5.80
2019-03-06T01:50:14.330Z,5.90
2019-03-06T01:52:44.152Z,6.60
2019-03-06T01:55:15.404Z,7.13
2019-03-06T01:57:44.970Z,7.23
2019-03-06T02:00:17.540Z,7.30
2019-03-06T02:02:47.379Z,7.77
2019-03-06T02:05:17.553Z,7.17
2019-03-06T02:07:47.150Z,8.00
2019-03-06T02:10:16.466Z,7.00
2019-03-06T02:12:46.043Z,6.93
2019-03-06T02:15:16.487Z,6.90
2019-03-06T02:17:46.315Z,7.37
2019-03-06T02:20:15.985Z,7.20
2019-03-06T02:22:44.926Z,7.70
2019-03-06T02:25:15.041Z,6.30
2019-03-06T02:27:44.815Z,6.10
2019-03-06T02:30:16.747Z,6.23
2019-03-06T02:32:46.599Z,6.30
2019-03-06T02:35:16.284Z,6.10
2019-03-06T02:37:45.900Z,6.93
2019-03-06T02:40:15.846Z,6.23
2019-03-06T02:42:45.404Z,5.80
2019-03-06T02:45:14.914Z,6.33
2019-03-06T02:47:44.884Z,6.00
2019-03-06T02:50:15.490Z,5.73
2019-03-06T02:52:45.178Z,6.37
2019-03-06T02:55:15.598Z,5.60
2019-03-06T02:57:52.058Z,6.47
2019-03-06T03:00:52.756Z,6.70
2019-03-06T03:03:30.726Z,5.80
2019-03-06T03:06:03.701Z,6.87
2019-03-06T03:08:33.458Z,5.47
2019-03-06T03:11:03.488Z,7.33
2019-03-06T03:13:33.269Z,8.10
2019-03-06T03:16:02.181Z,8.20
2019-03-06T03:18:31.791Z,8.20
2019-03-06T03:21:01.365Z,8.03
2019-03-06T03:23:30.953Z,7.80
2019-03-06T03:26:00.815Z,6.80
2019-03-06T03:28:30.383Z,7.30
2019-03-06T03:30:59.973Z,7.67
2019-03-06T03:33:29.824Z,7.50
2019-03-06T03:35:58.772Z,7.63
2019-03-06T03:38:28.332Z,7.77
2019-03-06T03:40:58.298Z,8.20
2019-03-06T03:43:27.199Z,7.57
2019-03-06T03:45:56.188Z,7.63
2019-03-06T03:48:26.088Z,7.60
2019-03-06T03:50:55.654Z,7.87
2019-03-06T03:53:25.227Z,7.90
2019-03-06T03:55:55.091Z,7.67
2019-03-06T03:58:24.747Z,8.80
2019-03-06T04:00:54.312Z,8.43
2019-03-06T04:03:24.368Z,8.37
2019-03-06T04:05:53.919Z,7.97
2019-03-06T04:08:23.474Z,8.73
2019-03-06T04:10:53.439Z,8.80
2019-03-06T04:13:22.342Z,10.03
2019-03-06T04:15:51.908Z,10.20
2019-03-06T04:18:22.787Z,11.90
2019-03-06T04:20:52.358Z,11.67
2019-03-06T04:23:21.363Z,12.63
2019-03-06T04:25:51.233Z,12.13
2019-03-06T04:28:20.139Z,12.70
2019-03-06T04:30:52.914Z,12.37
2019-03-06T04:33:22.779Z,13.07
2019-03-06T04:35:52.359Z,12.57
2019-03-06T04:38:21.282Z,13.83
2019-03-06T04:40:51.174Z,14.10
2019-03-06T04:43:20.743Z,13.40
2019-03-06T04:45:50.307Z,13.50
2019-03-06T04:48:20.172Z,13.20
2019-03-06T04:50:49.751Z,14.10
2019-03-06T04:53:19.323Z,12.97
2019-03-06T04:55:48.574Z,13.50
2019-03-06T04:58:18.143Z,13.30
2019-03-06T05:00:47.044Z,12.33
2019-03-06T05:03:16.912Z,13.23
2019-03-06T05:05:46.481Z,11.93
2019-03-06T05:08:16.034Z,12.37
2019-03-06T05:10:45.337Z,11.87
2019-03-06T05:13:14.930Z,12.57
2019-03-06T05:15:44.502Z,11.60
2019-03-06T05:18:19.127Z,13.17
2019-03-06T05:20:48.701Z,11.77
2019-03-06T05:23:18.320Z,12.03
2019-03-06T05:25:47.375Z,12.90
2019-03-06T05:28:17.118Z,11.83
2019-03-06T05:30:46.294Z,11.17
2019-03-06T05:33:15.965Z,12.53
2019-03-06T05:36:35.483Z,13.27
2019-03-06T05:39:07.103Z,14.43
2019-03-06T05:41:37.730Z,13.50
2019-03-06T05:44:07.853Z,12.93
2019-03-06T05:46:36.918Z,12.37
2019-03-06T05:49:06.660Z,13.77
2019-03-06T05:51:36.879Z,12.90
2019-03-06T05:54:06.510Z,11.37
2019-03-06T05:56:36.346Z,12.33
2019-03-06T05:59:05.684Z,12.53
2019-03-06T06:01:37.269Z,12.43
2019-03-06T06:04:06.872Z,13.53
2019-03-06T06:06:37.116Z,12.90
2019-03-06T06:09:07.589Z,11.43
2019-03-06T06:11:37.468Z,12.70
2019-03-06T06:14:06.897Z,12.90
2019-03-06T06:16:36.754Z,13.37
2019-03-06T06:19:06.342Z,13.97
2019-03-06T06:21:57.430Z,13.10
2019-03-06T06:24:28.561Z,12.87
2019-03-06T06:26:58.430Z,11.83
2019-03-06T06:29:28.016Z,10.53
2019-03-06T06:31:56.917Z,9.70
2019-03-06T06:34:26.774Z,11.50
2019-03-06T06:36:56.384Z,10.43
2019-03-06T06:39:25.967Z,11.20
2019-03-06T06:41:56.050Z,9.87
2019-03-06T06:44:25.458Z,9.13
2019-03-06T06:46:55.048Z,10.00
2019-03-06T06:49:24.418Z,8.00
2019-03-06T06:52:28.925Z,6.20
2019-03-06T06:55:30.677Z,6.57
2019-03-06T06:58:38.706Z,5.63
2019-03-06T07:02:11.475Z,5.83
2019-03-06T07:05:27.046Z,5.87
2019-03-06T07:08:21.616Z,6.30
2019-03-06T07:10:59.269Z,6.50
2019-03-06T07:13:33.808Z,6.13
2019-03-06T07:16:34.190Z,5.93
2019-03-06T07:19:24.020Z,6.30
2019-03-06T07:22:10.415Z,6.60
2019-03-06T07:25:07.937Z,7.70
2019-03-06T07:27:49.585Z,6.80
2019-03-06T07:30:44.136Z,6.77
2019-03-06T07:33:37.887Z,5.20
2019-03-06T07:36:38.999Z,4.70
2019-03-06T07:39:41.750Z,3.80
2019-03-06T07:42:37.422Z,4.57
2019-03-06T07:45:53.637Z,4.97
2019-03-06T07:48:40.290Z,7.53
2019-03-06T07:51:28.835Z,3.90
2019-03-06T07:54:17.657Z,4.43
2019-03-06T07:56:53.299Z,3.77
2019-03-06T07:59:23.173Z,3.33
2019-03-06T08:01:53.687Z,4.07
2019-03-06T08:04:23.314Z,4.07
2019-03-06T08:06:56.543Z,3.90
2019-03-06T08:09:26.157Z,4.50
2019-03-06T08:12:29.837Z,3.70
2019-03-06T08:15:16.519Z,4.87
2019-03-06T08:18:07.904Z,2.90
2019-03-06T08:20:56.430Z,3.23
2019-03-06T08:23:51.035Z,2.80
2019-03-06T08:26:20.633Z,8.57
2019-03-06T08:28:49.806Z,3.80
2019-03-06T08:31:31.648Z,2.43
2019-03-06T08:34:00.827Z,2.97
2019-03-06T08:36:30.746Z,2.30
2019-03-06T08:39:04.399Z,2.13
2019-03-06T08:41:34.247Z,2.40
2019-03-06T08:44:03.940Z,2.20
2019-03-06T08:47:07.380Z,2.20
2019-03-06T08:50:04.703Z,1.97
2019-03-06T08:52:47.791Z,2.07
2019-03-06T08:55:51.154Z,2.70
2019-03-06T08:58:42.703Z,2.10
2019-03-06T09:01:59.827Z,2.63
2019-03-06T09:04:38.029Z,2.60
2019-03-06T09:07:19.284Z,2.27
2019-03-06T09:13:18.913Z,2.50
2019-03-06T09:16:08.197Z,2.70
2019-03-06T09:18:51.279Z,2.40
2019-03-06T09:21:38.335Z,2.17
2019-03-06T09:24:29.869Z,2.40
2019-03-06T09:27:17.054Z,2.70
2019-03-06T09:30:04.207Z,2.43
2019-03-06T09:32:52.678Z,2.10
2019-03-06T09:35:40.442Z,2.30
2019-03-06T09:38:28.144Z,2.60
2019-03-06T09:41:31.328Z,2.47
2019-03-06T09:44:18.478Z,2.73
2019-03-06T09:47:12.720Z,2.90
2019-03-06T09:50:13.562Z,2.13
2019-03-06T09:53:05.211Z,2.30
2019-03-06T09:56:00.226Z,2.17
2019-03-06T09:58:51.526Z,2.83
2019-03-06T10:01:55.238Z,2.40
2019-03-06T10:04:42.087Z,2.70
2019-03-06T10:07:33.736Z,2.67
2019-03-06T10:10:22.231Z,3.47
2019-03-06T10:12:58.638Z,2.50
2019-03-06T10:15:49.882Z,2.60
2019-03-06T10:18:33.415Z,2.70
2019-03-06T10:21:03.014Z,2.53
2019-03-06T10:23:33.166Z,2.60
2019-03-06T10:26:02.806Z,3.10
2019-03-06T10:28:32.414Z,4.40
2019-03-06T10:31:02.871Z,2.50
2019-03-06T10:33:32.520Z,2.70
2019-03-06T10:36:01.754Z,2.60
2019-03-06T10:38:31.842Z,4.70
2019-03-06T10:41:01.604Z,3.80
2019-03-06T10:43:31.277Z,3.87
2019-03-06T10:46:01.945Z,2.60
2019-03-06T10:48:31.562Z,2.70
2019-03-06T10:51:01.274Z,2.97
2019-03-06T10:53:40.894Z,3.07
2019-03-06T10:56:02.507Z,2.87
2019-03-06T10:58:32.111Z,3.70
2019-03-06T11:01:01.992Z,2.63
2019-03-06T11:03:52.233Z,3.77
2019-03-06T11:06:22.193Z,2.70
2019-03-06T11:08:51.862Z,2.87
2019-03-06T11:11:24.870Z,2.67
2019-03-06T11:13:54.726Z,3.97
2019-03-06T11:16:24.339Z,3.20
2019-03-06T11:18:54.254Z,3.13
2019-03-06T11:21:24.471Z,7.20
2019-03-06T11:23:54.163Z,2.80
2019-03-06T11:26:23.944Z,3.50
2019-03-06T11:28:55.197Z,2.33
2019-03-06T11:31:24.841Z,3.50
2019-03-06T11:33:54.576Z,3.13
2019-03-06T11:36:24.876Z,2.70
2019-03-06T11:38:54.459Z,2.50
2019-03-06T11:41:24.071Z,2.93
2019-03-06T11:43:54.078Z,3.20
2019-03-06T11:46:23.691Z,2.83
2019-03-06T11:48:53.327Z,3.50
2019-03-06T11:51:23.516Z,3.07
2019-03-06T11:53:53.190Z,3.13
2019-03-06T11:56:23.050Z,2.83
2019-03-06T11:58:53.444Z,3.10
2019-03-06T12:01:25.783Z,2.50
2019-03-06T12:03:55.839Z,2.40
2019-03-06T12:06:25.773Z,2.50
2019-03-06T12:08:55.379Z,2.47
2019-03-06T12:11:26.064Z,2.33
2019-03-06T12:13:56.134Z,2.30
2019-03-06T12:16:25.731Z,2.37
2019-03-06T12:18:55.545Z,2.40
2019-03-06T12:21:25.776Z,2.00
2019-03-06T12:23:55.398Z,2.47
2019-03-06T12:26:25.332Z,2.17
2019-03-06T12:28:55.419Z,2.53
2019-03-06T12:31:26.175Z,2.27
2019-03-06T12:33:55.763Z,2.67
2019-03-06T12:36:25.706Z,2.57
2019-03-06T12:38:55.320Z,2.30
2019-03-06T12:41:25.011Z,2.60
2019-03-06T12:43:55.103Z,2.60
2019-03-06T12:46:25.852Z,2.07
2019-03-06T12:49:21.609Z,2.40
2019-03-06T12:51:54.610Z,2.03
2019-03-06T12:54:23.411Z,2.20
2019-03-06T12:56:53.220Z,2.80
2019-03-06T12:59:23.175Z,2.30
2019-03-06T13:01:52.909Z,3.20
2019-03-06T13:04:23.402Z,2.80
2019-03-06T13:06:53.330Z,2.60
2019-03-06T13:09:23.207Z,2.50
2019-03-06T13:11:52.308Z,2.60
2019-03-06T13:14:22.694Z,3.07
2019-03-06T13:16:52.467Z,2.97
2019-03-06T13:19:22.108Z,2.90
2019-03-06T13:21:52.003Z,3.37
2019-03-06T13:24:21.787Z,2.67
2019-03-06T13:26:50.727Z,2.83
2019-03-06T13:29:22.371Z,3.13
2019-03-06T13:31:52.124Z,2.43
2019-03-06T13:34:34.593Z,4.40
2019-03-06T13:37:04.700Z,4.10
2019-03-06T13:39:34.600Z,3.53
2019-03-06T13:42:04.745Z,2.30
2019-03-06T13:44:34.723Z,2.97
2019-03-06T13:47:04.330Z,4.13
2019-03-06T13:49:34.829Z,2.83
2019-03-06T13:52:05.386Z,3.73
2019-03-06T13:54:35.530Z,3.77
2019-03-06T13:57:05.467Z,3.57
2019-03-06T13:59:38.569Z,3.57
2019-03-06T14:02:08.212Z,3.43
2019-03-06T14:04:40.085Z,3.03
2019-03-06T14:07:11.554Z,4.70
2019-03-06T14:09:42.697Z,3.83
2019-03-06T14:12:12.526Z,3.93
2019-03-06T14:14:42.543Z,3.17
2019-03-06T14:17:12.208Z,2.90
2019-03-06T14:19:43.094Z,3.07
2019-03-06T14:22:13.173Z,2.97
2019-03-06T14:24:42.811Z,3.07
2019-03-06T14:27:12.947Z,3.37
2019-03-06T14:29:43.436Z,3.00
2019-03-06T14:32:16.388Z,2.97
2019-03-06T14:34:46.130Z,2.40
2019-03-06T14:37:17.293Z,3.20
2019-03-06T14:39:52.697Z,3.57
2019-03-06T14:42:26.284Z,3.40
2019-03-06T14:44:56.265Z,3.77
2019-03-06T14:47:26.226Z,2.40
2019-03-06T14:49:56.810Z,2.90
2019-03-06T14:52:26.427Z,2.57
2019-03-06T14:54:56.168Z,3.33
2019-03-06T14:57:25.799Z,2.67
2019-03-06T14:59:56.250Z,3.67
2019-03-06T15:02:26.342Z,3.00
2019-03-06T15:04:59.824Z,3.60
2019-03-06T15:07:33.330Z,5.23
2019-03-06T15:10:17.240Z,5.00
2019-03-06T15:12:47.179Z,5.20
2019-03-06T15:15:18.755Z,3.60
2019-03-06T15:17:49.363Z,3.20
2019-03-06T15:20:19.550Z,4.07
2019-03-06T15:22:50.925Z,3.03
2019-03-06T15:25:22.076Z,5.33
2019-03-06T15:27:52.247Z,3.87
2019-03-06T15:30:23.881Z,3.40
2019-03-06T15:32:53.478Z,5.00
2019-03-06T15:35:23.734Z,5.97
2019-03-06T15:37:56.897Z,2.43
2019-03-06T15:40:27.442Z,2.80
2019-03-06T15:42:57.603Z,3.30
2019-03-06T15:45:32.819Z,3.50
2019-03-06T15:48:05.686Z,2.67
2019-03-06T15:50:35.292Z,3.13
2019-03-06T15:53:04.965Z,2.90
2019-03-06T15:55:34.666Z,2.70
2019-03-06T15:58:06.023Z,2.50
2019-03-06T16:00:45.417Z,2.40
2019-03-06T16:03:08.482Z,2.90
2019-03-06T16:05:41.738Z,2.63
2019-03-06T16:08:12.684Z,2.47
2019-03-06T16:10:42.656Z,2.77
2019-03-06T16:13:12.434Z,3.03
2019-03-06T16:15:42.542Z,2.83
2019-03-06T16:18:12.182Z,2.70
2019-03-06T16:20:42.026Z,2.77
2019-03-06T16:23:13.832Z,2.80
2019-03-06T16:25:45.934Z,2.87
2019-03-06T16:28:15.562Z,3.13
2019-03-06T16:30:45.555Z,3.17
2019-03-06T16:33:15.150Z,3.20
2019-03-06T16:35:45.290Z,2.67
2019-03-06T16:38:15.107Z,3.17
2019-03-06T16:40:44.698Z,2.73
2019-03-06T16:43:14.477Z,2.90
2019-03-06T16:45:44.094Z,2.63
2019-03-06T16:48:14.368Z,3.30
2019-03-06T16:50:43.224Z,2.80
2019-03-06T16:53:13.567Z,2.37
2019-03-06T16:55:43.575Z,3.47
2019-03-06T16:58:13.190Z,3.70
2019-03-06T17:00:43.160Z,2.77
2019-03-06T17:03:12.329Z,2.90
2019-03-06T17:05:43.619Z,3.00
2019-03-06T17:08:13.233Z,2.87
2019-03-06T17:10:44.578Z,3.10
2019-03-06T17:13:14.214Z,3.20
2019-03-06T17:15:43.966Z,2.97
2019-03-06T17:18:14.335Z,3.03
2019-03-06T17:20:43.272Z,3.13
2019-03-06T17:23:16.839Z,3.60
2019-03-06T17:25:46.045Z,2.90
2019-03-06T17:28:26.313Z,3.00
2019-03-06T17:30:56.725Z,2.97
2019-03-06T17:33:26.052Z,2.63
2019-03-06T17:35:55.875Z,3.10
2019-03-06T17:38:25.862Z,3.40
2019-03-06T17:40:57.023Z,49.67
2019-03-06T17:43:27.477Z,3.53
2019-03-06T17:45:57.506Z,3.27
2019-03-06T17:48:26.507Z,3.40
2019-03-06T17:50:56.188Z,3.23
2019-03-06T17:53:27.377Z,3.53
2019-03-06T17:55:57.147Z,3.30
2019-03-06T17:58:26.954Z,4.10
2019-03-06T18:01:02.249Z,3.37
2019-03-06T18:03:45.719Z,3.53
2019-03-06T18:06:15.725Z,3.50
2019-03-06T18:08:45.333Z,3.70
2019-03-06T18:11:14.953Z,3.80
2019-03-06T18:13:44.580Z,4.10
2019-03-06T18:16:15.345Z,3.73
2019-03-06T18:18:45.275Z,3.70
2019-03-06T18:21:14.965Z,3.50
2019-03-06T18:23:46.535Z,4.17
2019-03-06T18:26:16.446Z,5.33
2019-03-06T18:28:46.033Z,4.90
2019-03-06T18:31:17.678Z,4.10
2019-03-06T18:33:47.322Z,3.47
2019-03-06T18:36:16.926Z,3.73
2019-03-06T18:38:46.527Z,4.27
2019-03-06T18:41:16.600Z,3.63
2019-03-06T18:43:46.208Z,4.60
2019-03-06T18:46:15.145Z,3.97
2019-03-06T18:48:45.095Z,4.23
2019-03-06T18:51:15.554Z,4.57
2019-03-06T18:53:45.128Z,3.93
2019-03-06T18:56:15.059Z,3.93
2019-03-06T18:58:44.639Z,3.80
2019-03-06T19:01:14.233Z,4.30
2019-03-06T19:03:44.315Z,3.70
2019-03-06T19:06:13.255Z,3.83
2019-03-06T19:08:42.832Z,3.97
2019-03-06T19:11:17.055Z,3.60
2019-03-06T19:13:44.027Z,3.70
2019-03-06T19:16:13.623Z,4.10
2019-03-06T19:18:45.489Z,3.13
2019-03-06T19:21:14.862Z,3.33
2019-03-06T19:23:45.807Z,4.50
2019-03-06T19:26:14.659Z,3.57
2019-03-06T19:28:46.246Z,4.17
2019-03-06T19:31:15.426Z,3.37
2019-03-06T19:33:45.427Z,4.07
2019-03-06T19:36:15.094Z,3.70
2019-03-06T19:38:44.682Z,12.40
2019-03-06T19:41:14.567Z,9.87
2019-03-06T19:43:44.212Z,16.63
2019-03-06T19:46:13.965Z,6.00
2019-03-06T19:48:43.865Z,7.83
2019-03-06T19:51:12.781Z,7.93
2019-03-06T19:53:42.376Z,5.10
2019-03-06T19:56:12.306Z,9.67
2019-03-06T19:58:42.030Z,6.67
2019-03-06T20:01:12.186Z,5.13
2019-03-06T20:03:42.094Z,6.63
2019-03-06T20:06:11.114Z,5.20
2019-03-06T20:08:40.974Z,4.60
2019-03-06T20:11:10.859Z,4.97
2019-03-06T20:13:40.746Z,6.70
2019-03-06T20:16:10.693Z,6.37
2019-03-06T20:18:41.159Z,6.27
2019-03-06T20:21:10.910Z,4.07
2019-03-06T20:23:41.117Z,4.20
2019-03-06T20:26:15.010Z,3.47
2019-03-06T20:28:43.344Z,3.73
2019-03-06T20:31:12.251Z,3.60
2019-03-06T20:33:42.131Z,4.53
2019-03-06T20:36:11.736Z,5.90
2019-03-06T20:38:41.546Z,6.60
2019-03-06T20:41:11.434Z,6.40
2019-03-06T20:43:42.270Z,5.40
2019-03-06T20:46:11.853Z,4.33
2019-03-06T20:48:41.794Z,4.40
2019-03-06T20:51:11.411Z,4.10
2019-03-06T20:53:42.123Z,4.67
2019-03-06T20:56:11.321Z,4.60
2019-03-06T20:58:41.854Z,4.37
2019-03-06T21:01:11.442Z,5.63
2019-03-06T21:03:41.418Z,5.70
2019-03-06T21:06:11.026Z,5.70
2019-03-06T21:08:40.990Z,4.30
2019-03-06T21:11:11.543Z,4.57
2019-03-06T21:13:41.296Z,4.60
2019-03-06T21:16:12.123Z,4.10
2019-03-06T21:18:42.216Z,3.17
2019-03-06T21:21:11.816Z,3.97
2019-03-06T21:23:41.467Z,4.20
2019-03-06T21:26:11.954Z,4.00
2019-03-06T21:28:41.624Z,3.83
2019-03-06T21:31:11.235Z,3.53
2019-03-06T21:33:42.197Z,3.67
2019-03-06T21:36:14.086Z,3.47
2019-03-06T21:38:43.671Z,3.93
2019-03-06T21:41:13.658Z,4.23
2019-03-06T21:43:43.250Z,3.60
2019-03-06T21:46:12.838Z,3.80
2019-03-06T21:48:42.776Z,3.93
2019-03-06T21:51:12.409Z,4.27
2019-03-06T21:53:43.996Z,3.80
2019-03-06T21:56:13.642Z,3.87
2019-03-06T21:58:43.260Z,3.90
2019-03-06T22:01:13.082Z,4.17
2019-03-06T22:03:42.766Z,3.93
2019-03-06T22:06:12.384Z,3.47
2019-03-06T22:08:42.240Z,3.17
2019-03-06T22:11:11.268Z,3.30
2019-03-06T22:13:41.200Z,3.93
2019-03-06T22:16:11.079Z,3.33
2019-03-06T22:18:40.936Z,3.63
2019-03-06T22:21:10.899Z,3.87
2019-03-06T22:23:40.968Z,4.00
2019-03-06T22:26:10.634Z,3.57
2019-03-06T22:28:40.474Z,4.17
2019-03-06T22:31:10.135Z,3.60
2019-03-06T22:33:40.354Z,4.30
2019-03-06T22:36:10.258Z,3.73
2019-03-06T22:38:41.851Z,3.27
2019-03-06T22:41:10.793Z,3.50
2019-03-06T22:43:41.953Z,3.47
2019-03-06T22:46:11.703Z,3.20
2019-03-06T22:48:41.533Z,3.50
2019-03-06T22:51:11.563Z,3.20
2019-03-06T22:53:42.322Z,3.57
2019-03-06T22:56:11.987Z,3.90
2019-03-06T22:58:41.870Z,3.20
2019-03-06T23:01:29.706Z,3.03
2019-03-06T23:04:02.161Z,3.23
2019-03-06T23:06:32.185Z,3.73
2019-03-06T23:09:01.790Z,3.47
2019-03-06T23:11:30.689Z,3.33
2019-03-06T23:14:10.949Z,3.03
2019-03-06T23:16:40.880Z,3.33
2019-03-06T23:19:09.862Z,3.30
2019-03-06T23:21:40.025Z,2.90
2019-03-06T23:24:09.638Z,3.10
2019-03-06T23:26:42.733Z,2.63
2019-03-06T23:29:21.149Z,3.47
2019-03-06T23:31:50.585Z,2.67
2019-03-06T23:34:20.406Z,2.90
2019-03-06T23:36:49.998Z,3.10
2019-03-06T23:39:19.599Z,2.57
2019-03-06T23:41:49.475Z,2.90
2019-03-06T23:44:29.951Z,2.70
2019-03-06T23:46:59.594Z,2.90
2019-03-06T23:49:28.752Z,2.80
2019-03-06T23:52:04.143Z,2.33
2019-03-06T23:54:33.819Z,2.77
2019-03-06T23:57:05.821Z,2.60
2019-03-06T23:59:35.556Z,2.73
